createdAt,value
2023-11-23T00:01:34.806Z,83.05
2023-11-23T00:04:02.536Z,82.75
2023-11-23T00:06:30.122Z,82.83
2023-11-23T00:08:57.772Z,82.49
2023-11-23T00:11:26.685Z,83.20
2023-11-23T00:13:54.295Z,83.83
2023-11-23T00:16:21.868Z,84.19
2023-11-23T00:18:49.605Z,83.40
2023-11-23T00:21:17.331Z,83.34
2023-11-23T00:23:44.926Z,83.14
2023-11-23T00:26:14.670Z,83.01
2023-11-23T00:28:43.564Z,83.34
2023-11-23T00:31:11.138Z,83.14
2023-11-23T00:33:38.854Z,82.89
2023-11-23T00:36:07.330Z,81.61
2023-11-23T00:38:35.381Z,82.74
2023-11-23T00:41:03.006Z,82.13
2023-11-23T00:43:30.634Z,80.81
2023-11-23T00:45:59.555Z,80.35
2023-11-23T00:48:28.324Z,81.25
2023-11-23T00:50:56.307Z,81.34
2023-11-23T00:53:23.917Z,81.10
2023-11-23T00:55:51.537Z,81.74
2023-11-23T00:58:19.055Z,81.91
2023-11-23T01:00:46.704Z,81.85
2023-11-23T01:03:15.746Z,82.84
2023-11-23T01:05:45.095Z,82.14
2023-11-23T01:08:12.890Z,81.56
2023-11-23T01:10:40.437Z,81.35
2023-11-23T01:13:08.055Z,81.16
2023-11-23T01:15:35.609Z,81.40
2023-11-23T01:18:03.275Z,81.09
2023-11-23T01:20:32.266Z,81.08
2023-11-23T01:22:59.879Z,80.90
2023-11-23T01:25:27.454Z,80.72
2023-11-23T01:27:56.173Z,80.66
2023-11-23T01:30:23.767Z,80.08
2023-11-23T01:32:51.528Z,81.03
2023-11-23T01:35:21.809Z,80.82
2023-11-23T01:37:51.087Z,80.79
2023-11-23T01:40:18.705Z,81.01
2023-11-23T01:42:48.818Z,81.33
2023-11-23T01:45:16.755Z,81.21
2023-11-23T01:47:46.576Z,81.41
2023-11-23T01:50:15.413Z,81.38
2023-11-23T01:52:43.666Z,81.47
2023-11-23T01:55:13.621Z,81.63
2023-11-23T01:57:41.722Z,81.54
2023-11-23T02:00:10.826Z,80.48
2023-11-23T02:02:38.516Z,81.04
2023-11-23T02:05:06.736Z,81.25
2023-11-23T02:07:35.160Z,81.80
2023-11-23T02:10:02.816Z,81.02
2023-11-23T02:12:32.062Z,81.16
2023-11-23T02:15:01.216Z,81.94
2023-11-23T02:17:31.693Z,81.05
2023-11-23T02:19:59.398Z,81.11
2023-11-23T02:22:27.997Z,81.26
2023-11-23T02:24:56.932Z,81.94
2023-11-23T02:27:24.609Z,81.98
2023-11-23T02:29:52.193Z,80.59
2023-11-23T02:32:39.414Z,80.63
2023-11-23T02:35:07.901Z,80.75
2023-11-23T02:37:35.452Z,80.79
2023-11-23T02:40:05.156Z,80.24
2023-11-23T02:42:32.741Z,80.25
2023-11-23T02:45:00.739Z,79.24
2023-11-23T02:47:28.506Z,79.34
2023-11-23T02:49:56.137Z,79.76
2023-11-23T02:52:23.901Z,78.91
2023-11-23T02:54:51.591Z,79.07
2023-11-23T02:57:20.538Z,79.29
2023-11-23T02:59:48.142Z,79.94
2023-11-23T03:02:15.747Z,79.75
2023-11-23T03:04:43.384Z,80.36
2023-11-23T03:07:10.986Z,80.29
2023-11-23T03:09:38.703Z,79.78
2023-11-23T03:12:06.700Z,79.06
2023-11-23T03:14:35.864Z,79.98
2023-11-23T03:17:04.118Z,80.44
2023-11-23T03:19:31.773Z,80.58
2023-11-23T03:21:59.716Z,81.24
2023-11-23T03:24:27.403Z,81.23
2023-11-23T03:26:55.117Z,81.52
2023-11-23T03:29:23.625Z,81.27
2023-11-23T03:31:52.813Z,82.11
2023-11-23T03:34:20.435Z,81.90
2023-11-23T03:36:48.043Z,81.86
2023-11-23T03:39:15.846Z,82.55
2023-11-23T03:41:43.513Z,82.10
2023-11-23T03:44:11.117Z,82.83
2023-11-23T03:46:38.693Z,82.82
2023-11-23T03:49:07.684Z,82.58
2023-11-23T03:51:35.228Z,82.78
2023-11-23T03:54:03.966Z,83.26
2023-11-23T03:56:31.884Z,83.74
2023-11-23T03:58:59.540Z,82.87
2023-11-23T04:01:27.220Z,82.87
2023-11-23T04:03:54.928Z,82.83
2023-11-23T04:06:24.140Z,82.56
2023-11-23T04:08:51.775Z,83.42
2023-11-23T04:11:19.379Z,83.02
2023-11-23T04:13:47.724Z,83.12
2023-11-23T04:16:15.396Z,82.62
2023-11-23T04:18:45.476Z,82.89
2023-11-23T04:21:12.975Z,81.61
2023-11-23T04:23:42.224Z,82.49
2023-11-23T04:26:09.846Z,83.12
2023-11-23T04:28:38.159Z,83.33
2023-11-23T04:31:06.275Z,83.04
2023-11-23T04:33:34.368Z,82.38
2023-11-23T04:36:02.477Z,82.72
2023-11-23T04:38:30.106Z,82.45
2023-11-23T04:40:58.984Z,82.24
2023-11-23T04:43:26.628Z,82.04
2023-11-23T04:45:54.214Z,81.97
2023-11-23T04:48:22.458Z,82.04
2023-11-23T04:50:51.133Z,81.30
2023-11-23T04:53:19.371Z,81.24
2023-11-23T04:55:47.572Z,81.34
2023-11-23T04:58:16.496Z,81.68
2023-11-23T05:00:44.083Z,82.21
2023-11-23T05:03:11.732Z,82.92
2023-11-23T05:05:39.356Z,82.45
2023-11-23T05:08:06.970Z,83.09
2023-11-23T05:10:34.644Z,82.45
2023-11-23T05:13:02.231Z,82.39
2023-11-23T05:15:31.156Z,83.79
2023-11-23T05:17:59.283Z,83.58
2023-11-23T05:20:26.872Z,83.73
2023-11-23T05:22:54.525Z,83.71
2023-11-23T05:25:22.281Z,84.08
2023-11-23T05:27:49.908Z,83.93
2023-11-23T05:30:17.593Z,84.78
2023-11-23T05:32:47.244Z,84.63
2023-11-23T05:35:14.949Z,85.02
2023-11-23T05:37:42.476Z,85.31
2023-11-23T05:40:13.895Z,85.58
2023-11-23T05:42:47.676Z,84.91
2023-11-23T05:45:21.525Z,85.21
2023-11-23T05:47:50.552Z,85.63
2023-11-23T05:50:18.150Z,86.59
2023-11-23T05:52:46.740Z,86.17
2023-11-23T05:55:16.364Z,86.60
2023-11-23T05:57:43.948Z,85.49
2023-11-23T06:00:12.697Z,86.86
2023-11-23T06:02:42.582Z,87.11
2023-11-23T06:05:12.046Z,86.46
2023-11-23T06:07:39.677Z,86.71
2023-11-23T06:10:08.894Z,86.35
2023-11-23T06:12:36.579Z,87.10
2023-11-23T06:15:05.007Z,87.48
2023-11-23T06:17:32.756Z,87.04
2023-11-23T06:20:00.476Z,86.79
2023-11-23T06:22:29.392Z,87.50
2023-11-23T06:24:57.078Z,87.19
2023-11-23T06:27:24.818Z,87.73
2023-11-23T06:29:53.629Z,87.74
2023-11-23T06:32:21.221Z,87.41
2023-11-23T06:34:48.895Z,87.12
2023-11-23T06:37:16.724Z,87.97
2023-11-23T06:39:45.648Z,88.03
2023-11-23T06:42:13.220Z,87.55
2023-11-23T06:44:40.773Z,87.67
2023-11-23T06:47:08.351Z,87.90
2023-11-23T06:49:36.268Z,87.39
2023-11-23T06:52:04.695Z,87.91
2023-11-23T06:54:33.392Z,88.17
2023-11-23T06:57:02.584Z,86.81
2023-11-23T06:59:30.994Z,87.62
2023-11-23T07:01:58.713Z,87.08
2023-11-23T07:04:26.426Z,87.24
2023-11-23T07:06:54.184Z,87.69
2023-11-23T07:09:22.431Z,86.99
2023-11-23T07:11:50.697Z,86.55
2023-11-23T07:14:19.741Z,86.97
2023-11-23T07:16:47.727Z,86.84
2023-11-23T07:19:15.343Z,86.60
2023-11-23T07:21:42.933Z,86.50
2023-11-23T07:24:11.233Z,86.14
2023-11-23T07:26:38.832Z,86.42
2023-11-23T07:29:06.763Z,86.78
2023-11-23T07:31:35.785Z,86.82
2023-11-23T07:34:04.101Z,86.49
2023-11-23T07:36:31.767Z,86.81
2023-11-23T07:38:59.644Z,86.48
2023-11-23T07:41:27.278Z,87.38
2023-11-23T07:43:58.857Z,86.76
2023-11-23T07:46:27.141Z,85.81
2023-11-23T07:48:56.173Z,85.63
2023-11-23T07:51:23.776Z,86.41
2023-11-23T07:53:51.416Z,86.09
2023-11-23T07:56:19.540Z,85.16
2023-11-23T07:58:47.796Z,85.75
2023-11-23T08:01:15.331Z,85.26
2023-11-23T08:03:43.116Z,85.08
2023-11-23T08:06:12.201Z,84.75
2023-11-23T08:08:39.756Z,84.60
2023-11-23T08:11:08.037Z,84.46
2023-11-23T08:13:36.103Z,83.98
2023-11-23T08:16:05.403Z,83.62
2023-11-23T08:18:40.265Z,83.69
2023-11-23T08:21:15.783Z,83.47
2023-11-23T08:23:43.541Z,83.22
2023-11-23T08:26:12.067Z,83.30
2023-11-23T08:28:39.714Z,83.56
2023-11-23T08:31:08.774Z,83.19
2023-11-23T08:33:36.384Z,82.69
2023-11-23T08:36:04.025Z,82.42
2023-11-23T08:38:33.010Z,81.78
2023-11-23T08:41:01.734Z,81.57
2023-11-23T08:43:29.531Z,81.35
2023-11-23T08:45:57.089Z,81.23
2023-11-23T08:48:24.765Z,81.42
2023-11-23T08:50:52.435Z,81.04
2023-11-23T08:53:20.044Z,80.38
2023-11-23T08:55:51.255Z,79.36
2023-11-23T08:58:19.613Z,79.97
2023-11-23T09:00:47.510Z,78.98
2023-11-23T09:03:15.186Z,79.11
2023-11-23T09:05:43.025Z,79.44
2023-11-23T09:08:10.762Z,79.59
2023-11-23T09:10:38.375Z,79.08
2023-11-23T09:13:07.271Z,77.61
2023-11-23T09:15:34.891Z,78.13
2023-11-23T09:18:02.725Z,77.89
2023-11-23T09:20:30.363Z,77.45
2023-11-23T09:22:58.078Z,77.61
2023-11-23T09:25:26.148Z,77.24
2023-11-23T09:27:54.968Z,76.99
2023-11-23T09:30:23.938Z,75.95
2023-11-23T09:32:51.750Z,76.19
2023-11-23T09:35:20.215Z,76.47
2023-11-23T09:37:48.502Z,76.49
2023-11-23T09:40:18.867Z,76.31
2023-11-23T09:42:49.551Z,76.02
2023-11-23T09:45:23.098Z,75.04
2023-11-23T09:47:54.808Z,75.57
2023-11-23T09:50:22.603Z,74.69
2023-11-23T09:52:50.628Z,74.53
2023-11-23T09:55:18.673Z,75.22
2023-11-23T09:57:46.905Z,73.95
2023-11-23T10:00:16.158Z,74.63
2023-11-23T10:02:45.202Z,75.72
2023-11-23T10:05:16.565Z,75.99
2023-11-23T10:07:45.045Z,75.38
2023-11-23T10:10:13.550Z,76.06
2023-11-23T10:12:41.495Z,75.99
2023-11-23T10:15:11.637Z,75.04
2023-11-23T10:17:41.011Z,75.05
2023-11-23T10:20:11.393Z,73.25
2023-11-23T10:22:43.956Z,73.45
2023-11-23T10:25:12.059Z,73.76
2023-11-23T10:27:39.684Z,74.69
2023-11-23T10:30:08.735Z,74.42
2023-11-23T10:32:38.037Z,74.08
2023-11-23T10:35:10.720Z,75.00
2023-11-23T10:37:41.069Z,75.68
2023-11-23T10:42:39.582Z,74.74
2023-11-23T10:45:08.816Z,74.16
2023-11-23T10:47:36.999Z,74.52
2023-11-23T10:50:06.554Z,73.88
2023-11-23T10:52:37.281Z,73.56
2023-11-23T10:55:07.334Z,74.37
2023-11-23T10:57:34.787Z,74.55
2023-11-23T11:00:04.917Z,74.13
2023-11-23T11:02:32.740Z,74.16
2023-11-23T11:05:00.654Z,74.23
2023-11-23T11:07:28.958Z,75.19
2023-11-23T11:10:00.486Z,74.93
2023-11-23T11:12:39.028Z,76.96
2023-11-23T11:15:08.512Z,75.94
2023-11-23T11:17:37.467Z,75.22
2023-11-23T11:20:09.802Z,74.19
2023-11-23T11:22:37.467Z,73.31
2023-11-23T11:25:05.756Z,75.14
2023-11-23T11:27:36.117Z,74.74
2023-11-23T11:30:06.870Z,74.34
2023-11-23T11:32:35.041Z,75.53
2023-11-23T11:35:04.116Z,75.12
2023-11-23T11:37:32.491Z,75.45
2023-11-23T11:40:00.889Z,75.41
2023-11-23T11:42:31.466Z,74.93
2023-11-23T11:44:59.489Z,76.12
2023-11-23T11:47:30.734Z,76.01
2023-11-23T11:49:58.916Z,75.79
2023-11-23T11:52:27.433Z,76.86
2023-11-23T11:54:55.237Z,76.22
2023-11-23T11:57:23.190Z,76.73
2023-11-23T11:59:52.304Z,77.43
2023-11-23T12:02:20.385Z,77.72
2023-11-23T12:04:58.781Z,77.68
2023-11-23T12:07:26.659Z,78.79
2023-11-23T12:09:55.578Z,78.46
2023-11-23T12:12:23.382Z,77.49
2023-11-23T12:14:51.269Z,78.18
2023-11-23T12:17:19.047Z,79.58
2023-11-23T12:19:55.362Z,79.19
2023-11-23T12:22:24.071Z,78.91
2023-11-23T12:24:52.303Z,78.78
2023-11-23T12:27:21.749Z,78.87
2023-11-23T12:29:49.724Z,78.54
2023-11-23T12:32:17.969Z,78.05
2023-11-23T12:34:45.733Z,77.30
2023-11-23T12:37:15.605Z,78.67
2023-11-23T12:39:43.257Z,77.80
2023-11-23T12:42:10.975Z,79.17
2023-11-23T12:44:38.602Z,78.59
2023-11-23T12:47:08.180Z,78.92
2023-11-23T12:49:35.921Z,77.75
2023-11-23T12:52:03.498Z,77.63
2023-11-23T12:54:33.964Z,77.36
2023-11-23T12:57:01.665Z,77.94
2023-11-23T12:59:29.236Z,77.32
2023-11-23T13:02:00.004Z,79.06
2023-11-23T13:04:30.463Z,78.27
2023-11-23T13:06:59.200Z,78.37
2023-11-23T13:09:28.785Z,77.74
2023-11-23T13:11:59.839Z,78.26
2023-11-23T13:14:27.800Z,79.19
2023-11-23T13:16:55.381Z,79.01
2023-11-23T13:19:30.570Z,78.86
2023-11-23T13:22:05.348Z,78.13
2023-11-23T13:24:33.787Z,78.50
2023-11-23T13:27:02.900Z,78.84
2023-11-23T13:29:30.956Z,79.28
2023-11-23T13:31:59.557Z,79.09
2023-11-23T13:34:27.550Z,78.93
2023-11-23T13:36:55.642Z,78.75
2023-11-23T13:39:23.644Z,78.83
2023-11-23T13:41:51.384Z,78.19
2023-11-23T13:44:21.144Z,78.82
2023-11-23T13:46:49.051Z,78.51
2023-11-23T13:49:17.887Z,77.96
2023-11-23T13:51:46.014Z,78.45
2023-11-23T13:54:14.799Z,79.30
2023-11-23T13:56:43.896Z,79.20
2023-11-23T13:59:12.705Z,78.02
2023-11-23T14:01:41.947Z,79.02
2023-11-23T14:04:13.826Z,78.91
2023-11-23T14:06:42.767Z,79.79
2023-11-23T14:09:18.950Z,80.04
2023-11-23T14:11:46.753Z,79.35
2023-11-23T14:14:14.580Z,79.86
2023-11-23T14:16:43.725Z,79.93
2023-11-23T14:19:16.834Z,81.02
2023-11-23T14:21:45.288Z,80.40
2023-11-23T14:24:13.024Z,80.44
2023-11-23T14:26:41.076Z,80.03
2023-11-23T14:29:10.762Z,80.50
2023-11-23T14:31:38.906Z,80.57
2023-11-23T14:34:08.065Z,80.69
2023-11-23T14:36:35.699Z,81.17
2023-11-23T14:39:05.547Z,80.76
2023-11-23T14:41:33.162Z,80.06
2023-11-23T14:44:00.785Z,81.87
2023-11-23T14:46:28.653Z,80.96
2023-11-23T14:48:56.256Z,81.33
2023-11-23T14:51:29.853Z,81.84
2023-11-23T14:54:04.161Z,82.36
2023-11-23T14:56:37.744Z,82.02
2023-11-23T14:59:06.634Z,81.82
2023-11-23T15:01:36.327Z,81.83
2023-11-23T15:04:04.505Z,82.63
2023-11-23T15:06:34.193Z,82.12
2023-11-23T15:09:01.879Z,82.11
2023-11-23T15:11:29.925Z,82.85
2023-11-23T15:13:58.744Z,83.02
2023-11-23T15:16:27.500Z,83.85
2023-11-23T15:18:55.596Z,83.35
2023-11-23T15:21:23.262Z,84.55
2023-11-23T15:23:52.202Z,83.69
2023-11-23T15:26:20.010Z,84.30
2023-11-23T15:28:47.657Z,85.31
2023-11-23T15:31:16.822Z,85.37
2023-11-23T15:33:44.552Z,85.13
2023-11-23T15:36:13.010Z,85.94
2023-11-23T15:38:40.649Z,85.96
2023-11-23T15:41:09.981Z,86.17
2023-11-23T15:43:37.847Z,85.87
2023-11-23T15:46:06.856Z,86.98
2023-11-23T15:48:35.227Z,85.94
2023-11-23T15:51:02.874Z,87.10
2023-11-23T15:53:30.515Z,87.39
2023-11-23T15:55:58.105Z,87.40
2023-11-23T15:58:27.969Z,86.53
2023-11-23T16:00:55.507Z,88.00
2023-11-23T16:03:23.144Z,87.56
2023-11-23T16:05:51.011Z,86.84
2023-11-23T16:08:18.633Z,87.66
2023-11-23T16:10:46.199Z,88.36
2023-11-23T16:13:19.402Z,87.16
2023-11-23T16:15:49.098Z,87.19
2023-11-23T16:18:16.969Z,88.40
2023-11-23T16:20:46.950Z,87.94
2023-11-23T16:23:14.607Z,88.41
2023-11-23T16:25:42.240Z,87.32
2023-11-23T16:28:09.872Z,87.80
2023-11-23T16:30:38.016Z,88.61
2023-11-23T16:33:06.997Z,87.59
2023-11-23T16:35:34.668Z,88.19
2023-11-23T16:38:04.669Z,87.96
2023-11-23T16:40:32.136Z,87.61
2023-11-23T16:43:00.434Z,86.97
2023-11-23T16:45:28.017Z,87.75
2023-11-23T16:47:55.692Z,86.69
2023-11-23T16:50:24.973Z,86.92
2023-11-23T16:52:52.552Z,87.69
2023-11-23T16:55:20.087Z,86.59
2023-11-23T16:57:48.393Z,86.89
2023-11-23T17:00:17.085Z,87.05
2023-11-23T17:02:44.876Z,86.88
2023-11-23T17:05:14.966Z,87.39
2023-11-23T17:07:43.902Z,86.63
2023-11-23T17:10:12.680Z,87.79
2023-11-23T17:12:40.348Z,87.05
2023-11-23T17:15:09.090Z,87.24
2023-11-23T17:17:36.749Z,87.44
2023-11-23T17:20:04.820Z,87.22
2023-11-23T17:22:35.541Z,88.01
2023-11-23T17:25:06.800Z,87.94
2023-11-23T17:27:34.518Z,87.65
2023-11-23T17:30:02.147Z,87.05
2023-11-23T17:32:29.766Z,86.75
2023-11-23T17:34:57.538Z,87.69
2023-11-23T17:37:25.158Z,86.90
2023-11-23T17:39:52.822Z,87.22
2023-11-23T17:42:21.848Z,87.54
2023-11-23T17:44:49.980Z,86.44
2023-11-23T17:47:17.574Z,86.72
2023-11-23T17:49:46.091Z,86.65
2023-11-23T17:52:14.621Z,86.43
2023-11-23T17:54:42.462Z,87.11
2023-11-23T17:57:10.208Z,87.22
2023-11-23T17:59:47.346Z,87.38
2023-11-23T18:02:19.466Z,87.52
2023-11-23T18:04:52.628Z,86.76
2023-11-23T18:07:20.374Z,87.68
2023-11-23T18:09:48.240Z,87.81
2023-11-23T18:12:15.891Z,86.48
2023-11-23T18:14:44.958Z,87.90
2023-11-23T18:17:12.750Z,87.65
2023-11-23T18:19:40.433Z,86.86
2023-11-23T18:22:08.980Z,86.55
2023-11-23T18:24:36.980Z,87.03
2023-11-23T18:27:07.680Z,86.71
2023-11-23T18:29:37.207Z,87.66
2023-11-23T18:32:08.247Z,86.74
2023-11-23T18:34:35.908Z,86.49
2023-11-23T18:37:03.676Z,87.05
2023-11-23T18:39:31.294Z,87.39
2023-11-23T18:41:59.241Z,86.09
2023-11-23T18:44:26.979Z,86.47
2023-11-23T18:46:55.634Z,86.73
2023-11-23T18:49:29.022Z,86.39
2023-11-23T18:51:56.623Z,87.17
2023-11-23T18:54:24.242Z,87.25
2023-11-23T18:56:51.897Z,87.81
2023-11-23T18:59:19.571Z,87.79
2023-11-23T19:01:47.365Z,87.29
2023-11-23T19:04:15.162Z,87.81
2023-11-23T19:06:44.228Z,87.11
2023-11-23T19:09:15.439Z,87.77
2023-11-23T19:11:43.116Z,88.13
2023-11-23T19:14:10.940Z,88.15
2023-11-23T19:16:38.823Z,89.01
2023-11-23T19:19:08.603Z,88.45
2023-11-23T19:21:36.910Z,89.55
2023-11-23T19:24:07.226Z,88.67
2023-11-23T19:26:35.747Z,90.37
2023-11-23T19:29:04.223Z,89.74
2023-11-23T19:31:33.025Z,90.42
2023-11-23T19:34:01.867Z,90.91
2023-11-23T19:36:30.133Z,90.55
2023-11-23T19:38:58.152Z,90.34
2023-11-23T19:41:28.195Z,89.76
2023-11-23T19:43:55.940Z,89.93
2023-11-23T19:46:24.080Z,89.47
2023-11-23T19:48:52.310Z,89.78
2023-11-23T19:51:25.108Z,89.97
2023-11-23T19:53:56.174Z,90.38
2023-11-23T19:56:25.984Z,89.61
2023-11-23T19:58:55.229Z,89.87
2023-11-23T20:01:22.856Z,90.42
2023-11-23T20:03:50.524Z,89.51
2023-11-23T20:06:18.322Z,89.48
2023-11-23T20:08:46.009Z,88.64
2023-11-23T20:11:14.791Z,88.99
2023-11-23T20:13:42.681Z,89.59
2023-11-23T20:16:23.867Z,89.39
2023-11-23T20:18:57.538Z,89.37
2023-11-23T20:21:25.229Z,89.23
2023-11-23T20:23:52.939Z,89.52
2023-11-23T20:26:20.609Z,89.17
2023-11-23T20:28:48.268Z,89.56
2023-11-23T20:31:17.728Z,90.19
2023-11-23T20:33:45.408Z,90.31
2023-11-23T20:36:13.306Z,89.84
2023-11-23T20:38:41.021Z,89.54
2023-11-23T20:41:08.594Z,90.21
2023-11-23T20:43:38.359Z,90.68
2023-11-23T20:46:08.344Z,91.05
2023-11-23T20:48:37.857Z,91.79
2023-11-23T20:51:06.400Z,91.96
2023-11-23T20:53:34.070Z,92.39
2023-11-23T20:56:02.587Z,93.25
2023-11-23T20:58:30.575Z,92.88
2023-11-23T21:01:00.058Z,94.12
2023-11-23T21:03:29.662Z,94.02
2023-11-23T21:06:00.244Z,93.64
2023-11-23T21:08:28.394Z,93.69
2023-11-23T21:10:56.095Z,94.05
2023-11-23T21:13:23.644Z,94.62
2023-11-23T21:15:55.177Z,94.17
2023-11-23T21:20:50.771Z,94.72
2023-11-23T21:23:19.825Z,94.18
2023-11-23T21:25:47.381Z,93.87
2023-11-23T21:28:15.339Z,93.63
2023-11-23T21:30:42.989Z,93.87
2023-11-23T21:33:11.283Z,93.65
2023-11-23T21:35:39.281Z,93.67
2023-11-23T21:38:06.937Z,94.21
2023-11-23T21:40:37.517Z,93.24
2023-11-23T21:43:05.228Z,93.73
2023-11-23T21:45:32.825Z,93.21
2023-11-23T21:48:01.831Z,92.79
2023-11-23T21:50:29.485Z,93.25
2023-11-23T21:52:57.149Z,93.43
2023-11-23T21:55:24.830Z,93.82
2023-11-23T21:57:53.986Z,93.04
2023-11-23T22:00:22.257Z,92.86
2023-11-23T22:02:50.023Z,93.69
2023-11-23T22:05:17.648Z,92.83
2023-11-23T22:07:45.280Z,93.84
2023-11-23T22:10:12.845Z,93.59
2023-11-23T22:12:40.792Z,93.97
2023-11-23T22:15:11.964Z,93.89
2023-11-23T22:17:39.897Z,93.44
2023-11-23T22:20:09.736Z,93.98
2023-11-23T22:22:37.975Z,94.36
2023-11-23T22:25:08.011Z,94.47
2023-11-23T22:27:36.309Z,94.02
2023-11-23T22:30:05.225Z,94.26
2023-11-23T22:32:34.612Z,93.67
2023-11-23T22:35:02.799Z,93.60
2023-11-23T22:37:31.390Z,94.17
2023-11-23T22:39:59.461Z,92.97
2023-11-23T22:42:27.779Z,93.02
2023-11-23T22:44:55.925Z,93.58
2023-11-23T22:47:23.527Z,94.21
2023-11-23T22:49:52.582Z,93.18
2023-11-23T22:52:20.246Z,93.61
2023-11-23T22:54:48.565Z,94.03
2023-11-23T22:57:16.232Z,93.44
2023-11-23T22:59:43.930Z,93.57
2023-11-23T23:02:11.720Z,94.72
2023-11-23T23:04:40.022Z,94.76
2023-11-23T23:07:10.033Z,93.92
2023-11-23T23:09:37.466Z,94.19
2023-11-23T23:12:05.572Z,94.71
2023-11-23T23:14:33.466Z,95.06
2023-11-23T23:17:01.277Z,95.19
2023-11-23T23:19:28.916Z,95.18
2023-11-23T23:21:56.900Z,95.02
2023-11-23T23:24:25.886Z,95.24
2023-11-23T23:26:53.441Z,94.94
2023-11-23T23:29:21.658Z,94.86
2023-11-23T23:31:49.194Z,95.14
2023-11-23T23:34:16.891Z,95.59
2023-11-23T23:36:44.510Z,95.55
2023-11-23T23:39:12.105Z,95.31
2023-11-23T23:41:41.021Z,95.97
2023-11-23T23:44:08.608Z,95.87
2023-11-23T23:46:36.423Z,95.86
2023-11-23T23:49:04.018Z,95.44
2023-11-23T23:51:32.922Z,95.14
2023-11-23T23:54:00.554Z,94.88
2023-11-23T23:56:28.423Z,94.87
2023-11-23T23:58:57.328Z,95.77
